createdAt,value
2022-08-21T00:02:40.223Z,9.68
2022-08-21T00:07:45.455Z,7.43
2022-08-21T00:12:50.521Z,6.38
2022-08-21T00:17:52.525Z,7.35
2022-08-21T00:22:57.574Z,8.88
2022-08-21T00:27:59.714Z,6.00
2022-08-21T00:33:07.090Z,6.90
2022-08-21T00:38:10.964Z,8.38
2022-08-21T00:43:18.243Z,6.68
2022-08-21T00:48:20.184Z,4.82
2022-08-21T00:53:22.579Z,7.07
2022-08-21T00:58:27.681Z,7.30
2022-08-21T01:03:30.430Z,5.28
2022-08-21T01:08:34.249Z,9.55
2022-08-21T01:13:39.316Z,7.65
2022-08-21T01:18:45.905Z,4.78
2022-08-21T01:23:50.638Z,7.63
2022-08-21T01:29:00.877Z,5.88
2022-08-21T01:34:04.898Z,10.13
2022-08-21T01:39:10.157Z,6.68
2022-08-21T01:44:11.950Z,5.18
2022-08-21T01:49:16.214Z,4.05
2022-08-21T01:54:19.379Z,4.45
2022-08-21T01:59:24.843Z,4.63
2022-08-21T02:04:26.628Z,4.05
2022-08-21T02:09:30.863Z,7.28
2022-08-21T02:14:37.912Z,8.32
2022-08-21T02:19:42.003Z,6.13
2022-08-21T02:24:54.801Z,7.72
2022-08-21T02:29:58.676Z,5.85
2022-08-21T02:35:02.716Z,10.35
2022-08-21T02:40:07.421Z,6.72
2022-08-21T02:45:09.651Z,4.68
2022-08-21T02:50:13.805Z,5.57
2022-08-21T02:55:21.853Z,6.55
2022-08-21T03:00:27.029Z,8.25
2022-08-21T03:05:32.247Z,9.65
2022-08-21T03:10:35.671Z,12.70
2022-08-21T03:15:41.026Z,6.43
2022-08-21T03:20:43.357Z,5.75
2022-08-21T03:25:49.258Z,6.45
2022-08-21T03:30:55.093Z,5.35
2022-08-21T03:36:05.670Z,7.13
2022-08-21T03:41:12.160Z,5.47
2022-08-21T03:46:14.797Z,5.82
2022-08-21T03:51:16.654Z,4.80
2022-08-21T03:56:20.859Z,6.20
2022-08-21T04:01:22.643Z,9.27
2022-08-21T04:06:24.607Z,4.85
2022-08-21T04:11:28.273Z,6.32
2022-08-21T04:16:32.298Z,14.02
2022-08-21T04:21:38.128Z,10.32
2022-08-21T04:26:44.920Z,10.85
2022-08-21T04:31:46.632Z,11.15
2022-08-21T04:36:48.410Z,13.13
2022-08-21T04:41:50.336Z,13.00
2022-08-21T04:46:52.632Z,14.85
2022-08-21T04:51:57.260Z,14.85
2022-08-21T04:57:06.326Z,16.15
2022-08-21T05:02:09.747Z,15.20
2022-08-21T05:07:41.659Z,12.70
2022-08-21T05:12:43.936Z,15.45
2022-08-21T05:17:53.736Z,11.98
2022-08-21T05:23:15.228Z,16.05
2022-08-21T05:28:16.987Z,11.63
2022-08-21T05:33:23.576Z,13.27
2022-08-21T05:38:29.417Z,16.35
2022-08-21T05:43:31.495Z,22.75
2022-08-21T05:48:33.633Z,12.43
2022-08-21T05:53:36.318Z,12.13
2022-08-21T05:58:38.410Z,11.20
2022-08-21T06:03:43.746Z,12.23
2022-08-21T06:08:47.979Z,15.07
2022-08-21T06:13:53.299Z,10.85
2022-08-21T06:19:00.727Z,12.27
2022-08-21T06:24:05.809Z,9.85
2022-08-21T06:29:08.565Z,10.48
2022-08-21T06:34:12.589Z,7.75
2022-08-21T06:39:16.604Z,11.00
2022-08-21T06:44:27.656Z,12.00
2022-08-21T06:49:31.654Z,11.95
2022-08-21T06:54:41.342Z,10.13
2022-08-21T06:59:47.940Z,10.80
2022-08-21T07:04:49.753Z,9.57
2022-08-21T07:09:53.949Z,10.63
2022-08-21T07:14:55.909Z,11.25
2022-08-21T07:20:00.215Z,11.80
2022-08-21T07:25:05.268Z,9.18
2022-08-21T07:30:10.274Z,8.85
2022-08-21T07:35:14.541Z,9.48
2022-08-21T07:40:18.112Z,7.55
2022-08-21T07:45:25.320Z,9.70
2022-08-21T07:50:30.490Z,8.95
2022-08-21T07:55:35.831Z,8.52
2022-08-21T08:00:43.417Z,7.20
2022-08-21T08:05:50.365Z,8.80
2022-08-21T08:10:58.299Z,9.40
2022-08-21T08:16:00.074Z,9.52
2022-08-21T08:21:01.850Z,10.13
2022-08-21T08:26:06.940Z,8.68
2022-08-21T08:31:11.830Z,10.57
2022-08-21T08:36:15.879Z,14.30
2022-08-21T08:41:22.660Z,10.32
2022-08-21T08:46:40.621Z,8.23
2022-08-21T08:51:55.819Z,9.60
2022-08-21T08:57:04.478Z,8.70
2022-08-21T09:02:06.749Z,7.55
2022-08-21T09:07:30.174Z,11.50
2022-08-21T09:12:41.015Z,7.00
2022-08-21T09:17:54.709Z,8.82
2022-08-21T09:23:10.895Z,7.03
2022-08-21T09:28:15.090Z,12.38
2022-08-21T09:33:22.413Z,10.38
2022-08-21T09:38:35.793Z,9.90
2022-08-21T09:43:41.032Z,10.93
2022-08-21T09:48:51.409Z,9.30
2022-08-21T09:54:01.558Z,12.75
2022-08-21T09:59:37.252Z,8.60
2022-08-21T10:04:40.253Z,7.60
2022-08-21T10:09:45.583Z,9.10
2022-08-21T10:14:56.791Z,8.30
2022-08-21T10:20:03.220Z,8.82
2022-08-21T10:25:27.634Z,6.32
2022-08-21T10:30:42.427Z,8.40
2022-08-21T10:36:19.253Z,8.85
2022-08-21T10:42:04.081Z,9.00
2022-08-21T10:47:12.020Z,7.35
2022-08-21T10:52:19.721Z,7.70
2022-08-21T10:57:49.093Z,5.95
2022-08-21T11:03:19.056Z,6.13
2022-08-21T11:08:38.268Z,7.53
2022-08-21T11:13:52.340Z,8.40
2022-08-21T11:19:03.726Z,7.70
2022-08-21T11:24:31.523Z,7.22
2022-08-21T11:29:36.858Z,10.27
2022-08-21T11:34:48.199Z,7.50
2022-08-21T11:39:59.575Z,5.43
2022-08-21T11:45:22.858Z,6.85
2022-08-21T11:50:36.096Z,6.65
2022-08-21T11:55:58.062Z,7.97
2022-08-21T12:01:12.620Z,5.57
2022-08-21T12:06:31.823Z,5.60
2022-08-21T12:12:02.556Z,4.22
2022-08-21T12:17:14.668Z,6.20
2022-08-21T12:22:18.459Z,6.57
2022-08-21T12:27:48.766Z,4.65
2022-08-21T12:33:18.657Z,5.13
2022-08-21T12:38:24.995Z,4.20
2022-08-21T12:43:33.082Z,3.50
2022-08-21T12:49:18.091Z,9.20
2022-08-21T12:54:32.022Z,4.95
2022-08-21T12:59:38.420Z,4.43
2022-08-21T13:04:41.401Z,6.30
2022-08-21T13:10:16.487Z,4.05
2022-08-21T13:15:26.558Z,4.80
2022-08-21T13:20:39.986Z,4.88
2022-08-21T13:25:41.929Z,4.30
2022-08-21T13:30:51.409Z,7.85
2022-08-21T13:36:05.753Z,3.38
2022-08-21T13:41:17.003Z,6.68
2022-08-21T13:46:22.974Z,4.78
2022-08-21T13:51:27.265Z,2.97
2022-08-21T13:56:37.349Z,4.68
2022-08-21T14:01:52.363Z,6.63
2022-08-21T14:06:58.989Z,4.53
2022-08-21T14:12:23.182Z,4.63
2022-08-21T14:17:33.948Z,6.75
2022-08-21T14:22:35.824Z,6.72
2022-08-21T14:27:45.673Z,8.45
2022-08-21T14:32:48.529Z,9.85
2022-08-21T14:37:55.040Z,9.63
2022-08-21T14:43:00.313Z,10.60
2022-08-21T14:48:05.460Z,11.15
2022-08-21T14:53:10.880Z,6.68
2022-08-21T14:58:15.719Z,11.23
2022-08-21T15:03:20.000Z,7.72
2022-08-21T15:08:21.871Z,9.40
2022-08-21T15:13:24.103Z,5.90
2022-08-21T15:18:28.165Z,17.00
2022-08-21T15:23:32.721Z,9.98
2022-08-21T15:28:35.506Z,7.85
2022-08-21T15:33:39.997Z,13.13
2022-08-21T15:38:54.193Z,11.57
2022-08-21T15:43:58.574Z,7.72
2022-08-21T15:49:05.146Z,9.00
2022-08-21T15:54:06.991Z,11.68
2022-08-21T15:59:22.823Z,9.50
2022-08-21T16:04:27.131Z,11.88
2022-08-21T16:09:30.890Z,8.60
2022-08-21T16:14:34.151Z,10.45
2022-08-21T16:19:37.308Z,11.20
2022-08-21T16:24:44.385Z,15.43
2022-08-21T16:29:47.030Z,10.05
2022-08-21T16:34:50.075Z,12.25
2022-08-21T16:39:55.115Z,11.68
2022-08-21T16:44:59.614Z,9.98
2022-08-21T16:50:06.532Z,10.80
2022-08-21T16:55:11.056Z,8.18
2022-08-21T17:00:14.660Z,8.70
2022-08-21T17:05:19.136Z,10.35
2022-08-21T17:10:23.440Z,11.53
2022-08-21T17:15:31.429Z,11.87
2022-08-21T17:44:46.270Z,12.25
2022-08-21T17:49:48.279Z,11.70
2022-08-21T17:54:50.895Z,15.68
2022-08-21T17:59:57.698Z,10.95
2022-08-21T18:09:40.987Z,13.80
2022-08-21T18:14:42.919Z,14.68
2022-08-21T18:19:49.003Z,13.57
2022-08-21T18:24:51.227Z,11.48
2022-08-21T18:29:55.337Z,13.32
2022-08-21T18:34:57.558Z,9.30
2022-08-21T18:39:59.703Z,9.63
2022-08-21T18:45:07.621Z,9.38
2022-08-21T18:50:12.473Z,11.63
2022-08-21T18:55:16.722Z,7.65
2022-08-21T19:00:31.906Z,11.20
2022-08-21T19:05:34.857Z,13.60
2022-08-21T19:10:39.389Z,12.07
2022-08-21T19:15:53.004Z,11.70
2022-08-21T19:20:55.020Z,11.38
2022-08-21T19:26:00.878Z,11.90
2022-08-21T19:31:16.429Z,8.73
2022-08-21T19:36:18.656Z,11.57
2022-08-21T19:41:24.213Z,13.25
2022-08-21T19:46:35.089Z,9.75
2022-08-21T19:51:37.032Z,10.48
2022-08-21T19:56:41.968Z,11.23
2022-08-21T20:01:43.968Z,12.35
2022-08-21T20:06:51.227Z,9.07
2022-08-21T20:11:58.313Z,10.93
2022-08-21T20:17:06.097Z,15.32
2022-08-21T20:22:10.634Z,9.27
2022-08-21T20:27:16.484Z,13.98
2022-08-21T20:32:22.633Z,10.20
2022-08-21T20:37:36.331Z,10.23
2022-08-21T20:42:47.246Z,13.57
2022-08-21T20:47:52.736Z,17.55
2022-08-21T20:53:07.386Z,12.50
2022-08-21T20:58:16.058Z,10.98
2022-08-21T21:03:30.335Z,11.73
2022-08-21T21:08:58.565Z,15.68
2022-08-21T21:14:13.704Z,13.82
2022-08-21T21:19:23.379Z,14.15
2022-08-21T21:24:33.454Z,13.82
2022-08-21T21:29:41.659Z,10.00
2022-08-21T21:34:45.441Z,11.75
2022-08-21T21:39:54.487Z,11.90
2022-08-21T21:45:20.633Z,12.05
2022-08-21T21:50:33.758Z,16.98
2022-08-21T21:56:27.500Z,15.70
2022-08-21T22:01:47.069Z,10.15
2022-08-21T22:07:17.627Z,10.30
2022-08-21T22:12:28.764Z,9.27
2022-08-21T22:17:45.102Z,12.35
2022-08-21T22:22:48.415Z,16.92
2022-08-21T22:27:59.663Z,14.48
2022-08-21T22:33:01.494Z,13.88
2022-08-21T22:38:18.459Z,14.07
2022-08-21T22:43:25.173Z,13.18
2022-08-21T22:53:59.187Z,19.80
2022-08-21T22:59:10.326Z,16.52
2022-08-21T23:04:22.121Z,17.08
2022-08-21T23:09:59.822Z,15.57
2022-08-21T23:15:12.559Z,12.07
2022-08-21T23:20:42.387Z,13.35
2022-08-21T23:26:01.885Z,10.80
2022-08-21T23:31:32.641Z,10.80
2022-08-21T23:37:00.109Z,11.85
2022-08-21T23:42:19.893Z,10.07
2022-08-21T23:47:51.029Z,12.70
2022-08-21T23:53:11.937Z,17.02
2022-08-21T23:58:18.474Z,16.27
